West Willow, Pennsylvania
Current Conditions -  °F | °C
As of 4:53 AM on Tuesday 21 Oct 2014 (Local Time) from KLNS Reporting Station
Haze Haze  
Wind Chill: 50°   Ceiling: 8500
Heat Index: 50°   Visibility: 6mi
Dew Point: 49°   Wind: 3mph
Humidity: 96%   Direction: 70°ENE
Pressure: 29.86"   Gusts: NA
Location:  39.97°N, 76.29°W
Report Text: KLNS 210853Z 07003KT 6SM BR FEW065 BKN085 OVC110 10/09 A2986 RMK AO2 SLP110 60003 T01000094 56018
Loading
Personal Weather Stations






























Interactive Weather Map
Tropical Storm Tracking
New forecast layout! Learn more

10-Day Weather Forecast

Advertisements
Track Severe Weather on mobile